»·PEaware :: N917YC KSBD-KWHP

N917YC :: KSBD-KWHP

FLIGHT INFORMATION

Flight Status: Arrived
Operator: Privately registered:
United States
More flights under this callsign
Pilot: Michael S. (964)
Aircraft: DIAMOND DA-42 TWINSTAR
(DA42)
More flights by this aircraft type
Origin: KSBD San Bernardino Intl
United States
Destination: KWHP Whiteman
United States
More flights between these airports :: More routes between these airports
Route: +L67 DIRECT
File this flight plan on PilotEdge
Remarks: / V /
Altitude:
(Current/Filed)
4,500ft
Speed:
(Current/Filed)
131kts
Departed: 14-Dec-12 09:01 AM
Arrived: 14-Dec-12 09:35 AM
Distance/Time
Traveled:
59nm/0:34
Distance/Time
To Go:
Arrived

Flight Plot

Page will automatically refresh every two minutes.

Flight plan parsing failed; only flown route is shown


Map Options




Map Legend


Flown Route
Filed Route
Departure Airport
Arrival Airport
Navaid (VOR, NDB)
Fix

Horizontal Profiles

Position Reports

Time Latitude Longitude Heading Altitude Ground
Speed
14-Dec-12 08:27 34.102067 -117.223436 49 1160ft 0kts
14-Dec-12 08:28 34.102067 -117.223436 49 1160ft 0kts
14-Dec-12 08:29 34.102067 -117.223436 49 1160ft 0kts
14-Dec-12 08:30 34.102067 -117.223436 49 1160ft 0kts
14-Dec-12 08:31 34.102067 -117.223436 49 1160ft 0kts
14-Dec-12 08:32 34.102067 -117.223436 49 1160ft 0kts
14-Dec-12 08:33 34.102067 -117.223436 49 1160ft 0kts
14-Dec-12 08:34 34.102067 -117.223436 49 1160ft 0kts
14-Dec-12 08:35 34.102067 -117.223436 49 1160ft 0kts
14-Dec-12 08:36 34.102067 -117.223436 49 1160ft 0kts
14-Dec-12 08:37 34.102067 -117.223436 49 1160ft 0kts
14-Dec-12 08:38 34.102067 -117.223436 49 1160ft 0kts
14-Dec-12 08:39 34.102067 -117.223436 49 1160ft 0kts
14-Dec-12 08:40 34.102067 -117.223436 49 1160ft 0kts
14-Dec-12 08:41 34.102067 -117.223436 49 1160ft 0kts
14-Dec-12 08:42 34.102067 -117.223436 49 1160ft 0kts
14-Dec-12 08:43 34.102067 -117.223436 49 1160ft 0kts
14-Dec-12 08:44 34.102067 -117.223436 49 1160ft 0kts
14-Dec-12 08:45 34.102068 -117.223435 49 1160ft 0kts
14-Dec-12 08:46 34.102072 -117.223429 49 1160ft 0kts
14-Dec-12 08:47 34.102079 -117.223419 49 1160ft 0kts
14-Dec-12 08:48 34.102085 -117.223411 49 1160ft 0kts
14-Dec-12 08:49 34.102090 -117.223402 49 1160ft 0kts
14-Dec-12 08:50 34.102096 -117.223394 49 1160ft 0kts
14-Dec-12 08:51 34.102106 -117.223380 49 1160ft 0kts
14-Dec-12 08:52 34.102080 -117.223014 121 1160ft 6kts
14-Dec-12 08:53 34.101986 -117.222872 132 1160ft 0kts
14-Dec-12 08:54 34.101405 -117.221582 69 1160ft 6kts
14-Dec-12 08:55 34.100707 -117.219886 84 1160ft 6kts
14-Dec-12 08:56 34.100670 -117.219619 220 1160ft 0kts
14-Dec-12 08:57 34.100664 -117.219626 220 1160ft 0kts
14-Dec-12 08:58 34.100651 -117.219639 220 1160ft 0kts
14-Dec-12 08:59 34.100649 -117.219641 220 1160ft 0kts
14-Dec-12 09:00 34.099596 -117.220584 251 1160ft 13kts
14-Dec-12 09:01 34.093492 -117.247181 257 1898ft 102kts
14-Dec-12 09:02 34.100383 -117.276239 308 3566ft 76kts
14-Dec-12 09:03 34.109733 -117.307840 285 4266ft 122kts
14-Dec-12 09:04 34.117061 -117.346809 284 4437ft 121kts
14-Dec-12 09:05 34.125642 -117.386125 284 4526ft 125kts
14-Dec-12 09:06 34.131198 -117.429376 279 4420ft 124kts
14-Dec-12 09:07 34.131046 -117.471966 258 4013ft 136kts
14-Dec-12 09:08 34.132549 -117.509362 287 4507ft 106kts
14-Dec-12 09:09 34.142754 -117.546512 284 4479ft 119kts
14-Dec-12 09:10 34.149533 -117.585715 280 4506ft 123kts
14-Dec-12 09:11 34.150969 -117.627236 264 4457ft 126kts
14-Dec-12 09:12 34.146293 -117.669337 262 4404ft 126kts
14-Dec-12 09:13 34.143764 -117.711974 266 4394ft 126kts
14-Dec-12 09:14 34.147727 -117.753381 285 4474ft 123kts
14-Dec-12 09:15 34.157082 -117.794035 287 4491ft 124kts
14-Dec-12 09:16 34.161307 -117.836438 274 4444ft 127kts
14-Dec-12 09:17 34.165304 -117.878955 274 4444ft 133kts
14-Dec-12 09:18 34.166302 -117.924596 270 4454ft 132kts
14-Dec-12 09:19 34.164063 -117.968549 264 4576ft 132kts
14-Dec-12 09:20 34.160617 -118.014001 263 4538ft 136kts
14-Dec-12 09:21 34.163893 -118.059317 279 4561ft 135kts
14-Dec-12 09:22 34.178875 -118.101616 296 4549ft 137kts
14-Dec-12 09:23 34.197172 -118.142868 297 4557ft 140kts
14-Dec-12 09:24 34.216133 -118.183300 293 4640ft 135kts
14-Dec-12 09:25 34.234027 -118.224563 292 4516ft 139kts
14-Dec-12 09:26 34.251345 -118.265566 282 4422ft 137kts
14-Dec-12 09:27 34.256892 -118.309900 273 4425ft 127kts
14-Dec-12 09:28 34.260589 -118.353077 271 3929ft 130kts
14-Dec-12 09:29 34.282165 -118.377980 23 3150ft 134kts
14-Dec-12 09:30 34.270743 -118.356102 214 2951ft 114kts
14-Dec-12 09:31 34.251355 -118.385065 241 2828ft 111kts
14-Dec-12 09:32 34.266041 -118.409565 356 2285ft 116kts
14-Dec-12 09:33 34.278125 -118.431179 217 1580ft 104kts
14-Dec-12 09:34 34.261782 -118.415995 139 1020ft 78kts
14-Dec-12 09:35 34.255382 -118.408795 53 1006ft 0kts
14-Dec-12 09:36 34.256930 -118.409947 336 1006ft 7kts
14-Dec-12 09:37 34.258413 -118.410611 335 1006ft 0kts
14-Dec-12 09:38 34.258520 -118.410766 284 1006ft 0kts
14-Dec-12 09:39 34.258521 -118.410770 284 1006ft 0kts
14-Dec-12 09:40 34.258522 -118.410776 284 1006ft 0kts
14-Dec-12 09:41 34.258523 -118.410781 284 1006ft 0kts

Navigation Log

Ident Type
Flight plan parsing failed, navigation log unavailable